createdAt,value
2022-11-08T00:02:05.175Z,97177.03
2022-11-08T00:04:34.660Z,97186.22
2022-11-08T00:07:18.354Z,97200.56
2022-11-08T00:10:00.376Z,97195.91
2022-11-08T00:12:42.670Z,97186.47
2022-11-08T00:15:11.449Z,97195.47
2022-11-08T00:17:39.666Z,97189.56
2022-11-08T00:20:09.209Z,97190.84
2022-11-08T00:22:39.126Z,97195.47
2022-11-08T00:25:07.887Z,97187.56
2022-11-08T00:27:36.086Z,97180.81
2022-11-08T00:30:04.564Z,97179.69
2022-11-08T00:32:32.865Z,97179.53
2022-11-08T00:35:01.107Z,97187.03
2022-11-08T00:37:29.367Z,97180.25
2022-11-08T00:39:58.992Z,97182.09
2022-11-08T00:42:27.266Z,97185.34
2022-11-08T00:44:55.774Z,97180.00
2022-11-08T00:47:24.020Z,97190.25
2022-11-08T00:49:52.271Z,97196.47
2022-11-08T00:52:20.835Z,97187.59
2022-11-08T00:54:49.063Z,97180.41
2022-11-08T00:57:18.679Z,97184.78
2022-11-08T00:59:46.888Z,97184.38
2022-11-08T01:02:15.562Z,97183.66
2022-11-08T01:04:43.874Z,97183.09
2022-11-08T01:07:12.082Z,97188.59
2022-11-08T01:09:40.314Z,97186.78
2022-11-08T01:12:08.606Z,97187.34
2022-11-08T01:14:38.495Z,97183.09
2022-11-08T01:17:06.991Z,97184.09
2022-11-08T01:19:35.238Z,97183.25
2022-11-08T01:22:03.446Z,97181.81
2022-11-08T01:24:31.691Z,97182.97
2022-11-08T01:27:00.210Z,97180.28
2022-11-08T01:29:28.452Z,97173.78
2022-11-08T01:31:58.069Z,97176.63
2022-11-08T01:34:26.628Z,97166.56
2022-11-08T01:36:54.849Z,97172.91
2022-11-08T01:39:23.106Z,97170.81
2022-11-08T01:41:51.658Z,97162.06
2022-11-08T01:44:21.919Z,97157.28
2022-11-08T01:46:50.227Z,97156.72
2022-11-08T01:49:27.582Z,97153.16
2022-11-08T01:51:59.643Z,97143.63
2022-11-08T01:54:30.520Z,97147.09
2022-11-08T01:56:58.730Z,97134.50
2022-11-08T01:59:26.959Z,97127.06
2022-11-08T02:01:55.277Z,97134.97
2022-11-08T02:04:25.279Z,97124.09
2022-11-08T02:06:53.497Z,97123.41
2022-11-08T02:09:22.218Z,97131.94
2022-11-08T02:11:50.463Z,97128.56
2022-11-08T02:14:19.169Z,97119.69
2022-11-08T02:16:47.402Z,97116.16
2022-11-08T02:19:19.295Z,97121.53
2022-11-08T02:21:50.438Z,97122.66
2022-11-08T02:24:20.050Z,97119.41
2022-11-08T02:26:48.293Z,97118.53
2022-11-08T02:29:26.862Z,97119.41
2022-11-08T02:31:55.202Z,97112.50
2022-11-08T02:34:25.988Z,97111.66
2022-11-08T02:36:54.223Z,97108.25
2022-11-08T02:39:24.221Z,97102.56
2022-11-08T02:41:52.496Z,97104.81
2022-11-08T02:44:20.750Z,97097.09
2022-11-08T02:46:48.993Z,97094.25
2022-11-08T02:49:17.228Z,97099.06
2022-11-08T02:51:45.763Z,97097.09
2022-11-08T02:54:14.031Z,97097.16
2022-11-08T02:56:43.729Z,97088.09
2022-11-08T02:59:11.969Z,97080.53
2022-11-08T03:01:40.523Z,97087.59
2022-11-08T03:04:08.916Z,97084.94
2022-11-08T03:06:37.145Z,97083.00
2022-11-08T03:09:05.434Z,97078.91
2022-11-08T03:11:33.699Z,97074.72
2022-11-08T03:14:03.303Z,97078.34
2022-11-08T03:16:31.624Z,97068.19
2022-11-08T03:18:59.886Z,97063.56
2022-11-08T03:21:28.132Z,97058.91
2022-11-08T03:23:56.352Z,97045.81
2022-11-08T03:26:24.578Z,97056.13
2022-11-08T03:28:52.841Z,97042.88
2022-11-08T03:31:22.711Z,97049.34
2022-11-08T03:33:50.951Z,97036.53
2022-11-08T03:36:19.202Z,97033.75
2022-11-08T03:38:47.703Z,97023.88
2022-11-08T03:41:15.939Z,97026.25
2022-11-08T03:43:44.179Z,97017.56
2022-11-08T03:46:12.698Z,97020.50
2022-11-08T03:48:42.597Z,97017.25
2022-11-08T03:51:10.858Z,97016.00
2022-11-08T03:53:39.117Z,97010.38
2022-11-08T03:56:08.003Z,97006.16
2022-11-08T03:58:36.905Z,96999.78
2022-11-08T04:01:06.382Z,97002.75
2022-11-08T04:03:34.938Z,96990.06
2022-11-08T04:06:04.890Z,96995.44
2022-11-08T04:08:33.142Z,96995.69
2022-11-08T04:11:21.952Z,96999.81
2022-11-08T04:14:03.997Z,96998.97
2022-11-08T04:16:32.748Z,96992.91
2022-11-08T04:19:15.110Z,96989.50
2022-11-08T04:21:45.674Z,96990.94
2022-11-08T04:24:13.950Z,96988.81
2022-11-08T04:26:42.439Z,96980.78
2022-11-08T04:29:11.021Z,96980.34
2022-11-08T04:31:39.293Z,96990.22
2022-11-08T04:34:07.513Z,96983.19
2022-11-08T04:36:35.754Z,96985.00
2022-11-08T04:39:05.650Z,96990.22
2022-11-08T04:41:33.926Z,96977.97
2022-11-08T04:44:02.195Z,96970.38
2022-11-08T04:46:30.793Z,96960.25
2022-11-08T04:48:59.603Z,96963.47
2022-11-08T04:51:28.718Z,96959.94
2022-11-08T04:53:57.737Z,96973.63
2022-11-08T04:56:28.077Z,96967.09
2022-11-08T04:58:57.099Z,96962.47
2022-11-08T05:01:26.279Z,96954.16
2022-11-08T05:03:54.859Z,96956.84
2022-11-08T05:06:23.850Z,96950.78
2022-11-08T05:08:52.225Z,96946.28
2022-11-08T05:11:21.798Z,96944.47
2022-11-08T05:13:51.531Z,96952.63
2022-11-08T05:16:20.863Z,96954.59
2022-11-08T05:18:49.246Z,96948.81
2022-11-08T05:21:31.943Z,96953.47
2022-11-08T05:24:00.537Z,96947.41
2022-11-08T05:26:28.852Z,96942.91
2022-11-08T05:28:58.462Z,96938.25
2022-11-08T05:31:26.762Z,96939.56
2022-11-08T05:33:55.030Z,96941.50
2022-11-08T05:36:23.352Z,96940.81
2022-11-08T05:38:51.558Z,96933.34
2022-11-08T05:41:20.566Z,96936.44
2022-11-08T05:43:49.387Z,96931.09
2022-11-08T05:46:19.634Z,96935.44
2022-11-08T05:48:48.881Z,96917.44
2022-11-08T05:51:17.486Z,96912.81
2022-11-08T05:53:47.163Z,96908.44
2022-11-08T05:56:17.911Z,96910.81
2022-11-08T05:58:46.160Z,96900.41
2022-11-08T06:01:20.472Z,96900.13
2022-11-08T06:03:50.077Z,96888.56
2022-11-08T06:06:19.529Z,96892.09
2022-11-08T06:08:50.701Z,96889.13
2022-11-08T06:11:21.597Z,96897.28
2022-11-08T06:13:50.196Z,96892.66
2022-11-08T06:16:19.426Z,96880.25
2022-11-08T06:18:48.117Z,96888.28
2022-11-08T06:21:18.523Z,96870.53
2022-11-08T06:23:46.821Z,96867.72
2022-11-08T06:26:15.359Z,96876.47
2022-11-08T06:28:43.609Z,96882.81
2022-11-08T06:31:11.891Z,96881.81
2022-11-08T06:33:40.129Z,96854.09
2022-11-08T06:36:08.795Z,96840.25
2022-11-08T06:38:38.654Z,96851.53
2022-11-08T06:41:07.250Z,96841.22
2022-11-08T06:43:36.037Z,96842.66
2022-11-08T06:46:08.796Z,96851.34
2022-11-08T06:48:37.285Z,96839.13
2022-11-08T06:51:05.726Z,96851.91
2022-11-08T06:53:33.977Z,96846.69
2022-11-08T06:56:03.762Z,96844.34
2022-11-08T06:58:32.062Z,96849.34
2022-11-08T07:01:02.468Z,96847.41
2022-11-08T07:03:30.983Z,96857.13
2022-11-08T07:05:59.248Z,96852.63
2022-11-08T07:08:27.484Z,96854.84
2022-11-08T07:10:55.714Z,96854.41
2022-11-08T07:13:25.299Z,96858.91
2022-11-08T07:15:53.542Z,96849.59
2022-11-08T07:18:22.108Z,96848.69
2022-11-08T07:20:50.426Z,96851.25
2022-11-08T07:23:18.977Z,96855.19
2022-11-08T07:25:47.796Z,96845.59
2022-11-08T07:28:18.150Z,96856.31
2022-11-08T07:30:48.177Z,96854.00
2022-11-08T07:33:16.940Z,96857.41
2022-11-08T07:35:47.492Z,96865.53
2022-11-08T07:38:17.296Z,96858.19
2022-11-08T07:40:45.545Z,96854.53
2022-11-08T07:43:13.786Z,96861.56
2022-11-08T07:45:42.272Z,96861.44
2022-11-08T07:48:14.408Z,96859.22
2022-11-08T07:50:44.394Z,96857.03
2022-11-08T07:53:12.781Z,96841.19
2022-11-08T07:55:41.429Z,96839.50
2022-11-08T07:58:11.292Z,96850.28
2022-11-08T08:00:40.598Z,96843.66
2022-11-08T08:03:09.755Z,96839.97
2022-11-08T08:05:40.080Z,96843.25
2022-11-08T08:08:08.313Z,96844.72
2022-11-08T08:10:36.777Z,96843.25
2022-11-08T08:13:05.356Z,96845.88
2022-11-08T08:15:33.583Z,96852.78
2022-11-08T08:18:02.765Z,96852.84
2022-11-08T08:20:31.516Z,96853.00
2022-11-08T08:23:01.485Z,96862.03
2022-11-08T08:25:31.196Z,96859.75
2022-11-08T08:28:01.136Z,96863.13
2022-11-08T08:30:30.435Z,96857.59
2022-11-08T08:35:53.789Z,96858.38
2022-11-08T08:38:23.518Z,96873.03
2022-11-08T08:40:52.156Z,96859.69
2022-11-08T08:43:21.089Z,96858.28
2022-11-08T08:45:50.097Z,96859.69
2022-11-08T08:48:18.449Z,96850.63
2022-11-08T08:50:47.017Z,96847.88
2022-11-08T08:53:15.487Z,96837.19
2022-11-08T08:55:45.784Z,96844.53
2022-11-08T08:58:14.442Z,96838.47
2022-11-08T09:03:32.281Z,96834.03
2022-11-08T09:06:00.987Z,96833.63
2022-11-08T09:08:29.338Z,96824.53
2022-11-08T09:10:59.847Z,96830.63
2022-11-08T09:13:28.622Z,96831.72
2022-11-08T09:15:56.880Z,96819.50
2022-11-08T09:18:25.470Z,96821.34
2022-11-08T09:20:56.958Z,96823.88
2022-11-08T09:23:25.238Z,96809.56
2022-11-08T09:25:59.137Z,96800.41
2022-11-08T09:28:31.203Z,96809.91
2022-11-08T09:31:03.288Z,96791.50
2022-11-08T09:33:31.563Z,96800.28
2022-11-08T09:36:00.893Z,96811.81
2022-11-08T09:38:29.365Z,96811.31
2022-11-08T09:41:07.752Z,96816.28
2022-11-08T09:43:46.686Z,96814.16
2022-11-08T09:46:18.251Z,96811.78
2022-11-08T09:48:46.846Z,96824.88
2022-11-08T09:51:16.799Z,96823.38
2022-11-08T09:53:49.548Z,96835.97
2022-11-08T09:56:23.699Z,96830.25
2022-11-08T09:58:54.500Z,96835.63
2022-11-08T10:01:26.895Z,96834.91
2022-11-08T10:03:56.140Z,96827.84
2022-11-08T10:06:34.682Z,96823.31
2022-11-08T10:09:07.288Z,96829.56
2022-11-08T10:11:45.643Z,96831.84
2022-11-08T10:14:25.135Z,96824.16
2022-11-08T10:17:00.667Z,96817.66
2022-11-08T10:19:36.357Z,96816.06
2022-11-08T10:22:05.616Z,96812.63
2022-11-08T10:24:36.535Z,96810.22
2022-11-08T10:27:11.267Z,96808.06
2022-11-08T10:29:42.638Z,96805.72
2022-11-08T10:32:17.535Z,96796.19
2022-11-08T10:34:51.866Z,96794.56
2022-11-08T10:37:20.166Z,96787.25
2022-11-08T10:39:54.439Z,96785.56
2022-11-08T10:42:30.756Z,96781.91
2022-11-08T10:44:59.003Z,96776.28
2022-11-08T10:47:30.968Z,96786.91
2022-11-08T10:50:06.485Z,96774.16
2022-11-08T10:52:40.962Z,96779.03
2022-11-08T10:55:09.514Z,96768.97
2022-11-08T10:57:40.343Z,96762.53
2022-11-08T11:00:18.604Z,96759.88
2022-11-08T11:02:48.424Z,96770.13
2022-11-08T11:05:25.435Z,96769.13
2022-11-08T11:08:04.526Z,96769.63
2022-11-08T11:10:34.033Z,96766.50
2022-11-08T11:13:05.822Z,96771.81
2022-11-08T11:15:35.939Z,96761.22
2022-11-08T11:18:09.688Z,96764.38
2022-11-08T11:20:41.066Z,96769.13
2022-11-08T11:23:12.077Z,96759.00
2022-11-08T11:25:40.686Z,96757.25
2022-11-08T11:28:14.781Z,96749.22
2022-11-08T11:30:47.512Z,96752.53
2022-11-08T11:33:24.615Z,96751.88
2022-11-08T11:35:54.715Z,96752.53
2022-11-08T11:38:30.072Z,96729.53
2022-11-08T11:41:08.338Z,96729.88
2022-11-08T11:43:43.895Z,96734.25
2022-11-08T11:46:16.961Z,96741.47
2022-11-08T11:48:47.362Z,96740.13
2022-11-08T11:51:15.918Z,96741.81
2022-11-08T11:53:48.626Z,96734.59
2022-11-08T11:56:29.243Z,96731.72
2022-11-08T11:59:19.300Z,96730.06
2022-11-08T12:01:55.651Z,96720.75
2022-11-08T12:04:34.048Z,96729.03
2022-11-08T12:07:05.687Z,96730.50
2022-11-08T12:09:42.320Z,96716.72
2022-11-08T12:12:17.278Z,96703.59
2022-11-08T12:14:52.846Z,96715.72
2022-11-08T12:17:35.468Z,96710.16
2022-11-08T12:20:12.517Z,96715.16
2022-11-08T12:22:47.325Z,96714.97
2022-11-08T12:25:24.214Z,96706.19
2022-11-08T12:27:58.738Z,96701.97
2022-11-08T12:30:35.513Z,96694.28
2022-11-08T12:33:18.749Z,96707.13
2022-11-08T12:35:54.313Z,96704.19
2022-11-08T12:38:26.244Z,96698.63
2022-11-08T12:40:57.355Z,96714.38
2022-11-08T12:43:37.746Z,96702.97
2022-11-08T12:46:10.622Z,96710.25
2022-11-08T12:48:49.092Z,96713.59
2022-11-08T12:51:21.523Z,96705.03
2022-11-08T12:53:55.325Z,96709.69
2022-11-08T12:56:24.566Z,96703.44
2022-11-08T12:58:53.876Z,96704.53
2022-11-08T13:01:24.554Z,96707.81
2022-11-08T13:04:06.292Z,96723.38
2022-11-08T13:06:39.998Z,96697.38
2022-11-08T13:09:13.053Z,96718.91
2022-11-08T13:11:43.945Z,96711.88
2022-11-08T13:14:14.519Z,96714.25
2022-11-08T13:16:45.998Z,96744.72
2022-11-08T13:19:32.485Z,96745.34
2022-11-08T13:22:03.275Z,96742.00
2022-11-08T13:24:44.477Z,96744.00
2022-11-08T13:27:25.774Z,96747.34
2022-11-08T13:29:54.300Z,96741.91
2022-11-08T13:32:39.060Z,96741.38
2022-11-08T13:35:08.781Z,96729.31
2022-11-08T13:37:48.825Z,96707.22
2022-11-08T13:40:24.136Z,96712.66
2022-11-08T13:42:58.957Z,96700.34
2022-11-08T13:45:32.954Z,96685.66
2022-11-08T13:48:06.241Z,96688.28
2022-11-08T13:51:06.989Z,96681.19
2022-11-08T13:53:47.452Z,96688.69
2022-11-08T13:56:27.270Z,96684.38
2022-11-08T13:58:56.326Z,96693.34
2022-11-08T14:01:54.768Z,96684.56
2022-11-08T14:04:25.733Z,96680.22
2022-11-08T14:06:59.313Z,96694.66
2022-11-08T14:09:33.599Z,96689.63
2022-11-08T14:12:06.573Z,96689.97
2022-11-08T14:14:45.628Z,96687.81
2022-11-08T14:17:23.274Z,96688.25
2022-11-08T14:19:53.265Z,96686.94
2022-11-08T14:22:23.048Z,96682.56
2022-11-08T14:24:52.789Z,96673.53
2022-11-08T14:27:34.345Z,96672.84
2022-11-08T14:30:03.889Z,96673.69
2022-11-08T14:32:32.535Z,96685.09
2022-11-08T14:35:14.483Z,96689.66
2022-11-08T14:37:44.010Z,96687.13
2022-11-08T14:40:19.263Z,96693.00
2022-11-08T14:42:47.537Z,96694.50
2022-11-08T14:45:16.238Z,96689.97
2022-11-08T14:47:44.681Z,96684.09
2022-11-08T14:50:19.233Z,96677.34
2022-11-08T14:52:47.786Z,96700.44
2022-11-08T14:55:16.849Z,96689.97
2022-11-08T14:57:45.731Z,96688.91
2022-11-08T15:00:19.180Z,96690.28
2022-11-08T15:02:48.922Z,96686.25
2022-11-08T15:08:26.828Z,96696.31
2022-11-08T15:11:00.969Z,96689.97
2022-11-08T15:13:30.356Z,96683.25
2022-11-08T15:16:02.122Z,96681.25
2022-11-08T15:18:32.410Z,96689.31
2022-11-08T15:21:04.968Z,96693.72
2022-11-08T15:23:47.416Z,96693.41
2022-11-08T15:26:22.262Z,96702.47
2022-11-08T15:29:02.340Z,96700.44
2022-11-08T15:31:36.364Z,96704.16
2022-11-08T15:34:05.146Z,96697.44
2022-11-08T15:36:35.220Z,96693.22
2022-11-08T15:39:11.970Z,96687.34
2022-11-08T15:41:41.688Z,96676.75
2022-11-08T15:44:19.402Z,96677.94
2022-11-08T15:46:47.787Z,96693.56
2022-11-08T15:49:19.311Z,96673.38
2022-11-08T15:51:47.800Z,96683.13
2022-11-08T15:54:17.765Z,96679.78
2022-11-08T15:56:46.109Z,96676.91
2022-11-08T15:59:20.904Z,96667.50
2022-11-08T16:01:53.441Z,96666.53
2022-11-08T16:04:21.706Z,96670.03
2022-11-08T16:06:50.029Z,96669.38
2022-11-08T16:09:20.087Z,96672.06
2022-11-08T16:11:48.474Z,96675.59
2022-11-08T16:14:18.849Z,96670.22
2022-11-08T16:16:47.105Z,96661.31
2022-11-08T16:19:19.786Z,96668.88
2022-11-08T16:21:48.361Z,96658.63
2022-11-08T16:24:16.655Z,96659.63
2022-11-08T16:26:46.404Z,96654.25
2022-11-08T16:29:23.582Z,96670.22
2022-11-08T16:31:56.110Z,96661.13
2022-11-08T16:34:24.918Z,96663.16
2022-11-08T16:36:54.819Z,96661.81
2022-11-08T16:39:26.350Z,96662.31
2022-11-08T16:41:56.011Z,96664.47
2022-11-08T16:44:24.593Z,96666.81
2022-11-08T16:46:53.651Z,96653.38
2022-11-08T16:49:22.624Z,96662.13
2022-11-08T16:51:50.851Z,96663.13
2022-11-08T16:54:20.176Z,96654.56
2022-11-08T16:56:48.440Z,96668.16
2022-11-08T16:59:18.100Z,96655.56
2022-11-08T17:01:46.393Z,96651.69
2022-11-08T17:04:14.699Z,96659.25
2022-11-08T17:06:43.006Z,96659.59
2022-11-08T17:09:11.327Z,96664.47
2022-11-08T17:11:40.972Z,96667.50
2022-11-08T17:14:10.759Z,96665.66
2022-11-08T17:16:40.518Z,96672.53
2022-11-08T17:19:09.316Z,96665.66
2022-11-08T17:21:44.673Z,96660.28
2022-11-08T17:24:19.850Z,96680.13
2022-11-08T17:26:50.192Z,96674.91
2022-11-08T17:29:18.428Z,96663.47
2022-11-08T17:31:48.187Z,96660.41
2022-11-08T17:34:16.759Z,96663.28
2022-11-08T17:36:45.044Z,96658.25
2022-11-08T17:39:14.304Z,96662.44
2022-11-08T17:41:42.690Z,96670.50
2022-11-08T17:44:11.353Z,96679.94
2022-11-08T17:46:39.647Z,96678.41
2022-11-08T17:49:09.814Z,96681.09
2022-11-08T17:51:38.050Z,96682.94
2022-11-08T17:54:06.337Z,96687.31
2022-11-08T17:56:34.640Z,96669.66
2022-11-08T17:59:03.978Z,96668.97
2022-11-08T18:01:32.654Z,96676.69
2022-11-08T18:04:01.194Z,96666.63
2022-11-08T18:06:31.031Z,96674.22
2022-11-08T18:09:01.788Z,96661.59
2022-11-08T18:11:30.062Z,96671.53
2022-11-08T18:13:58.303Z,96676.56
2022-11-08T18:16:26.528Z,96664.97
2022-11-08T18:18:54.762Z,96671.88
2022-11-08T18:21:23.012Z,96677.94
2022-11-08T18:23:52.650Z,96673.56
2022-11-08T18:26:20.905Z,96685.50
2022-11-08T18:28:49.225Z,96675.56
2022-11-08T18:31:18.378Z,96671.19
2022-11-08T18:33:46.829Z,96668.84
2022-11-08T18:36:16.606Z,96666.13
2022-11-08T18:38:46.031Z,96675.03
2022-11-08T18:41:17.150Z,96669.19
2022-11-08T18:43:45.809Z,96667.97
2022-11-08T18:46:15.354Z,96678.94
2022-11-08T18:48:44.405Z,96678.94
2022-11-08T18:51:13.542Z,96679.25
2022-11-08T18:53:41.831Z,96684.47
2022-11-08T18:56:10.197Z,96679.59
2022-11-08T18:58:39.836Z,96665.28
2022-11-08T19:01:08.275Z,96660.41
2022-11-08T19:03:36.846Z,96666.47
2022-11-08T19:06:05.295Z,96679.44
2022-11-08T19:08:33.689Z,96674.38
2022-11-08T19:11:03.144Z,96670.53
2022-11-08T19:13:32.765Z,96667.16
2022-11-08T19:16:04.156Z,96668.19
2022-11-08T19:18:32.549Z,96671.88
2022-11-08T19:21:03.007Z,96682.47
2022-11-08T19:23:31.282Z,96681.63
2022-11-08T19:26:00.527Z,96675.22
2022-11-08T19:28:32.684Z,96676.06
2022-11-08T19:31:02.619Z,96682.28
2022-11-08T19:33:31.473Z,96677.44
2022-11-08T19:36:02.430Z,96690.03
2022-11-08T19:38:30.690Z,96680.78
2022-11-08T19:41:01.969Z,96687.66
2022-11-08T19:43:31.314Z,96689.50
2022-11-08T19:46:03.843Z,96691.03
2022-11-08T19:48:32.594Z,96686.47
2022-11-08T19:51:02.296Z,96686.66
2022-11-08T19:53:30.575Z,96678.56
2022-11-08T19:56:01.312Z,96681.94
2022-11-08T19:58:29.585Z,96675.38
2022-11-08T20:00:57.842Z,96683.47
2022-11-08T20:03:27.437Z,96681.09
2022-11-08T20:05:56.020Z,96692.84
2022-11-08T20:08:24.824Z,96676.72
2022-11-08T20:10:53.124Z,96671.66
2022-11-08T20:13:23.489Z,96675.38
2022-11-08T20:15:51.846Z,96676.38
2022-11-08T20:18:21.024Z,96675.19
2022-11-08T20:20:50.808Z,96676.06
2022-11-08T20:23:19.058Z,96678.56
2022-11-08T20:25:47.302Z,96685.31
2022-11-08T20:28:16.093Z,96687.84
2022-11-08T20:30:44.567Z,96688.66
2022-11-08T20:33:12.775Z,96697.78
2022-11-08T20:35:41.053Z,96696.41
2022-11-08T20:38:10.967Z,96688.66
2022-11-08T20:40:39.566Z,96688.84
2022-11-08T20:43:07.812Z,96691.72
2022-11-08T20:45:36.025Z,96692.06
2022-11-08T20:48:04.691Z,96705.19
2022-11-08T20:50:32.957Z,96700.44
2022-11-08T20:53:01.207Z,96708.88
2022-11-08T20:55:30.951Z,96699.78
2022-11-08T20:57:59.365Z,96697.09
2022-11-08T21:00:51.876Z,96704.16
2022-11-08T21:03:18.911Z,96711.22
2022-11-08T21:05:51.836Z,96703.63
2022-11-08T21:11:11.424Z,96711.38
2022-11-08T21:13:41.555Z,96706.84
2022-11-08T21:16:28.614Z,96717.25
2022-11-08T21:18:58.572Z,96707.31
2022-11-08T21:21:27.055Z,96713.72
2022-11-08T21:23:55.626Z,96706.84
2022-11-08T21:26:25.711Z,96707.69
2022-11-08T21:28:53.957Z,96710.69
2022-11-08T21:31:22.959Z,96720.44
2022-11-08T21:33:51.365Z,96707.53
2022-11-08T21:36:20.698Z,96702.13
2022-11-08T21:38:49.214Z,96701.78
2022-11-08T21:41:17.475Z,96712.91
2022-11-08T21:43:47.776Z,96714.06
2022-11-08T21:46:17.171Z,96721.78
2022-11-08T21:48:46.112Z,96722.28
2022-11-08T21:51:14.392Z,96724.16
2022-11-08T21:53:52.398Z,96718.75
2022-11-08T21:56:22.605Z,96724.13
2022-11-08T21:58:52.273Z,96722.28
2022-11-08T22:01:23.085Z,96727.66
2022-11-08T22:03:54.071Z,96735.06
2022-11-08T22:06:22.879Z,96736.94
2022-11-08T22:08:51.092Z,96732.19
2022-11-08T22:11:19.365Z,96723.13
2022-11-08T22:13:47.858Z,96728.34
2022-11-08T22:16:17.537Z,96736.91
2022-11-08T22:21:39.452Z,96734.22
2022-11-08T22:24:08.253Z,96736.56
2022-11-08T22:26:36.599Z,96735.06
2022-11-08T22:29:05.123Z,96724.63
2022-11-08T22:31:34.810Z,96730.34
2022-11-08T22:34:03.034Z,96726.81
2022-11-08T22:36:31.561Z,96723.28
2022-11-08T22:38:59.894Z,96715.59
2022-11-08T22:41:28.149Z,96722.63
2022-11-08T22:43:56.408Z,96711.88
2022-11-08T22:46:24.914Z,96712.22
2022-11-08T22:48:54.562Z,96709.69
2022-11-08T22:51:22.961Z,96709.84
2022-11-08T22:53:51.495Z,96701.94
2022-11-08T22:56:19.755Z,96710.53
2022-11-08T22:58:48.229Z,96708.16
2022-11-08T23:01:16.822Z,96715.75
2022-11-08T23:03:46.115Z,96711.22
2022-11-08T23:06:15.755Z,96713.22
2022-11-08T23:08:44.020Z,96714.56
2022-11-08T23:11:26.051Z,96718.94
2022-11-08T23:14:08.326Z,96725.16
2022-11-08T23:16:38.044Z,96705.84
2022-11-08T23:19:21.655Z,96716.25
2022-11-08T23:22:05.370Z,96724.47
2022-11-08T23:24:33.594Z,96720.97
2022-11-08T23:27:15.959Z,96706.16
2022-11-08T23:29:58.039Z,96711.22
2022-11-08T23:32:26.264Z,96713.91
2022-11-08T23:34:54.812Z,96717.41
2022-11-08T23:37:24.452Z,96715.91
2022-11-08T23:40:06.459Z,96719.78
2022-11-08T23:42:48.861Z,96722.13
2022-11-08T23:45:17.150Z,96724.66
2022-11-08T23:47:45.391Z,96732.38
2022-11-08T23:50:14.064Z,96727.00
2022-11-08T23:52:43.665Z,96719.78
2022-11-08T23:55:11.874Z,96727.00
2022-11-08T23:57:40.111Z,96727.00
